sensor_id;sensor_type;location;lat;lon;timestamp;P1;durP1;ratioP1;P2;durP2;ratioP2
85983;SDS011;76557;45.488;12.254;2024-03-08T00:00:34;14.05;;;7.78;;
85983;SDS011;76557;45.488;12.254;2024-03-08T00:04:29;14.35;;;8.68;;
85983;SDS011;76557;45.488;12.254;2024-03-08T00:08:25;16.23;;;8.35;;
85983;SDS011;76557;45.488;12.254;2024-03-08T00:12:20;15.57;;;9.60;;
85983;SDS011;76557;45.488;12.254;2024-03-08T00:16:16;12.80;;;7.18;;
85983;SDS011;76557;45.488;12.254;2024-03-08T00:20:11;12.25;;;7.55;;
85983;SDS011;76557;45.488;12.254;2024-03-08T00:24:08;15.73;;;7.60;;
85983;SDS011;76557;45.488;12.254;2024-03-08T00:28:03;14.68;;;8.38;;
85983;SDS011;76557;45.488;12.254;2024-03-08T00:32:01;14.20;;;7.85;;
85983;SDS011;76557;45.488;12.254;2024-03-08T00:35:56;14.15;;;7.32;;
85983;SDS011;76557;45.488;12.254;2024-03-08T00:39:52;13.45;;;8.10;;
85983;SDS011;76557;45.488;12.254;2024-03-08T00:43:48;12.98;;;8.50;;
85983;SDS011;76557;45.488;12.254;2024-03-08T00:47:44;16.55;;;9.48;;
85983;SDS011;76557;45.488;12.254;2024-03-08T00:51:39;16.48;;;9.52;;
85983;SDS011;76557;45.488;12.254;2024-03-08T00:55:35;16.83;;;9.93;;
85983;SDS011;76557;45.488;12.254;2024-03-08T00:59:30;15.57;;;8.57;;
85983;SDS011;76557;45.488;12.254;2024-03-08T01:03:27;14.90;;;8.85;;
85983;SDS011;76557;45.488;12.254;2024-03-08T01:07:23;14.65;;;8.52;;
85983;SDS011;76557;45.488;12.254;2024-03-08T01:11:18;14.02;;;8.15;;
85983;SDS011;76557;45.488;12.254;2024-03-08T01:15:13;15.35;;;7.50;;
85983;SDS011;76557;45.488;12.254;2024-03-08T01:19:09;13.00;;;7.97;;
85983;SDS011;76557;45.488;12.254;2024-03-08T01:23:04;13.60;;;7.80;;
85983;SDS011;76557;45.488;12.254;2024-03-08T01:27:02;13.20;;;7.25;;
85983;SDS011;76557;45.488;12.254;2024-03-08T01:30:58;13.45;;;8.00;;
85983;SDS011;76557;45.488;12.254;2024-03-08T01:34:53;14.52;;;8.15;;
85983;SDS011;76557;45.488;12.254;2024-03-08T01:38:49;12.30;;;7.45;;
85983;SDS011;76557;45.488;12.254;2024-03-08T01:42:44;16.20;;;8.23;;
85983;SDS011;76557;45.488;12.254;2024-03-08T01:46:40;12.10;;;6.05;;
85983;SDS011;76557;45.488;12.254;2024-03-08T01:50:35;12.98;;;8.07;;
85983;SDS011;76557;45.488;12.254;2024-03-08T01:54:31;16.40;;;9.07;;
85983;SDS011;76557;45.488;12.254;2024-03-08T01:58:27;14.50;;;8.65;;
85983;SDS011;76557;45.488;12.254;2024-03-08T02:02:24;15.70;;;8.65;;
85983;SDS011;76557;45.488;12.254;2024-03-08T02:06:20;13.60;;;7.65;;
85983;SDS011;76557;45.488;12.254;2024-03-08T02:10:16;13.65;;;8.40;;
85983;SDS011;76557;45.488;12.254;2024-03-08T02:14:11;16.73;;;8.90;;
85983;SDS011;76557;45.488;12.254;2024-03-08T02:18:07;14.45;;;8.05;;
85983;SDS011;76557;45.488;12.254;2024-03-08T02:22:02;14.40;;;7.15;;
85983;SDS011;76557;45.488;12.254;2024-03-08T02:25:59;13.27;;;7.97;;
85983;SDS011;76557;45.488;12.254;2024-03-08T02:29:55;10.98;;;7.63;;
85983;SDS011;76557;45.488;12.254;2024-03-08T02:33:51;12.40;;;7.30;;
85983;SDS011;76557;45.488;12.254;2024-03-08T02:37:46;12.20;;;7.57;;
85983;SDS011;76557;45.488;12.254;2024-03-08T02:41:42;12.13;;;7.68;;
85983;SDS011;76557;45.488;12.254;2024-03-08T02:45:38;13.15;;;8.02;;
85983;SDS011;76557;45.488;12.254;2024-03-08T02:49:33;14.88;;;7.72;;
85983;SDS011;76557;45.488;12.254;2024-03-08T02:53:29;10.75;;;6.43;;
85983;SDS011;76557;45.488;12.254;2024-03-08T02:57:24;10.50;;;6.15;;
85983;SDS011;76557;45.488;12.254;2024-03-08T03:01:20;10.70;;;6.25;;
85983;SDS011;76557;45.488;12.254;2024-03-08T03:05:15;9.73;;;5.47;;
85983;SDS011;76557;45.488;12.254;2024-03-08T03:09:11;8.48;;;5.53;;
85983;SDS011;76557;45.488;12.254;2024-03-08T03:13:06;7.90;;;4.85;;
85983;SDS011;76557;45.488;12.254;2024-03-08T03:17:03;7.28;;;4.40;;
85983;SDS011;76557;45.488;12.254;2024-03-08T03:20:59;8.23;;;4.78;;
85983;SDS011;76557;45.488;12.254;2024-03-08T03:24:55;6.43;;;4.22;;
85983;SDS011;76557;45.488;12.254;2024-03-08T03:28:53;6.90;;;3.75;;
85983;SDS011;76557;45.488;12.254;2024-03-08T03:32:49;6.68;;;3.80;;
85983;SDS011;76557;45.488;12.254;2024-03-08T03:36:46;6.50;;;4.10;;
85983;SDS011;76557;45.488;12.254;2024-03-08T03:40:42;7.10;;;3.95;;
85983;SDS011;76557;45.488;12.254;2024-03-08T03:44:37;6.78;;;3.85;;
85983;SDS011;76557;45.488;12.254;2024-03-08T03:48:33;6.55;;;3.83;;
85983;SDS011;76557;45.488;12.254;2024-03-08T03:52:28;6.38;;;3.95;;
85983;SDS011;76557;45.488;12.254;2024-03-08T03:56:27;6.63;;;4.53;;
85983;SDS011;76557;45.488;12.254;2024-03-08T04:00:22;6.82;;;3.72;;
85983;SDS011;76557;45.488;12.254;2024-03-08T04:04:18;6.60;;;3.88;;
85983;SDS011;76557;45.488;12.254;2024-03-08T04:08:13;5.70;;;3.60;;
85983;SDS011;76557;45.488;12.254;2024-03-08T04:12:08;6.55;;;3.75;;
85983;SDS011;76557;45.488;12.254;2024-03-08T04:16:04;6.65;;;3.90;;
85983;SDS011;76557;45.488;12.254;2024-03-08T04:20:03;6.25;;;3.55;;
85983;SDS011;76557;45.488;12.254;2024-03-08T04:24:04;6.03;;;3.78;;
85983;SDS011;76557;45.488;12.254;2024-03-08T04:28:00;6.28;;;3.97;;
85983;SDS011;76557;45.488;12.254;2024-03-08T04:31:55;5.45;;;3.55;;
85983;SDS011;76557;45.488;12.254;2024-03-08T04:35:51;6.75;;;4.18;;
85983;SDS011;76557;45.488;12.254;2024-03-08T04:39:46;6.05;;;3.40;;
85983;SDS011;76557;45.488;12.254;2024-03-08T04:43:42;6.07;;;3.10;;
85983;SDS011;76557;45.488;12.254;2024-03-08T04:47:37;6.03;;;3.35;;
85983;SDS011;76557;45.488;12.254;2024-03-08T04:51:33;6.03;;;4.78;;
85983;SDS011;76557;45.488;12.254;2024-03-08T04:55:29;6.63;;;3.53;;
85983;SDS011;76557;45.488;12.254;2024-03-08T04:59:24;7.85;;;4.40;;
85983;SDS011;76557;45.488;12.254;2024-03-08T05:03:19;5.88;;;4.07;;
85983;SDS011;76557;45.488;12.254;2024-03-08T05:07:16;7.88;;;4.00;;
85983;SDS011;76557;45.488;12.254;2024-03-08T05:11:11;6.15;;;2.00;;
85983;SDS011;76557;45.488;12.254;2024-03-08T05:15:09;6.07;;;4.05;;
85983;SDS011;76557;45.488;12.254;2024-03-08T05:19:05;5.93;;;3.95;;
85983;SDS011;76557;45.488;12.254;2024-03-08T05:23:00;7.30;;;4.47;;
85983;SDS011;76557;45.488;12.254;2024-03-08T05:26:56;6.55;;;3.58;;
85983;SDS011;76557;45.488;12.254;2024-03-08T05:30:51;6.00;;;3.53;;
85983;SDS011;76557;45.488;12.254;2024-03-08T05:34:47;6.25;;;4.03;;
85983;SDS011;76557;45.488;12.254;2024-03-08T05:38:42;6.10;;;3.63;;
85983;SDS011;76557;45.488;12.254;2024-03-08T05:42:38;5.93;;;3.20;;
85983;SDS011;76557;45.488;12.254;2024-03-08T05:46:34;6.60;;;3.88;;
85983;SDS011;76557;45.488;12.254;2024-03-08T05:50:32;7.97;;;4.40;;
85983;SDS011;76557;45.488;12.254;2024-03-08T05:54:28;6.65;;;4.32;;
85983;SDS011;76557;45.488;12.254;2024-03-08T05:58:23;7.32;;;5.18;;
85983;SDS011;76557;45.488;12.254;2024-03-08T06:02:19;7.43;;;4.50;;
85983;SDS011;76557;45.488;12.254;2024-03-08T06:06:14;7.60;;;4.55;;
85983;SDS011;76557;45.488;12.254;2024-03-08T06:10:13;7.53;;;4.55;;
85983;SDS011;76557;45.488;12.254;2024-03-08T06:14:08;9.15;;;5.43;;
85983;SDS011;76557;45.488;12.254;2024-03-08T06:18:03;7.00;;;4.35;;
85983;SDS011;76557;45.488;12.254;2024-03-08T06:22:00;8.90;;;5.28;;
85983;SDS011;76557;45.488;12.254;2024-03-08T06:26:00;7.93;;;4.85;;
85983;SDS011;76557;45.488;12.254;2024-03-08T06:29:56;8.70;;;5.43;;
85983;SDS011;76557;45.488;12.254;2024-03-08T06:33:51;10.40;;;5.43;;
85983;SDS011;76557;45.488;12.254;2024-03-08T06:37:49;10.65;;;5.97;;
85983;SDS011;76557;45.488;12.254;2024-03-08T06:41:45;8.43;;;5.57;;
85983;SDS011;76557;45.488;12.254;2024-03-08T06:45:40;11.50;;;6.53;;
85983;SDS011;76557;45.488;12.254;2024-03-08T06:49:35;10.38;;;5.70;;
85983;SDS011;76557;45.488;12.254;2024-03-08T06:53:31;10.18;;;5.80;;
85983;SDS011;76557;45.488;12.254;2024-03-08T06:57:30;8.20;;;5.13;;
85983;SDS011;76557;45.488;12.254;2024-03-08T07:01:26;9.23;;;6.28;;
85983;SDS011;76557;45.488;12.254;2024-03-08T07:05:23;10.52;;;5.63;;
85983;SDS011;76557;45.488;12.254;2024-03-08T07:13:15;7.38;;;4.22;;
85983;SDS011;76557;45.488;12.254;2024-03-08T07:17:11;9.25;;;5.57;;
85983;SDS011;76557;45.488;12.254;2024-03-08T07:21:07;9.43;;;5.38;;
85983;SDS011;76557;45.488;12.254;2024-03-08T07:25:02;8.85;;;5.47;;
85983;SDS011;76557;45.488;12.254;2024-03-08T07:29:16;8.35;;;5.10;;
85983;SDS011;76557;45.488;12.254;2024-03-08T07:33:12;9.77;;;5.55;;
85983;SDS011;76557;45.488;12.254;2024-03-08T07:37:07;10.60;;;6.07;;
85983;SDS011;76557;45.488;12.254;2024-03-08T07:41:06;10.05;;;6.25;;
85983;SDS011;76557;45.488;12.254;2024-03-08T07:45:01;11.20;;;6.05;;
85983;SDS011;76557;45.488;12.254;2024-03-08T07:48:57;11.60;;;6.15;;
85983;SDS011;76557;45.488;12.254;2024-03-08T07:52:52;8.40;;;5.28;;
85983;SDS011;76557;45.488;12.254;2024-03-08T07:56:48;11.10;;;5.88;;
85983;SDS011;76557;45.488;12.254;2024-03-08T08:00:43;11.40;;;6.22;;
85983;SDS011;76557;45.488;12.254;2024-03-08T08:04:39;10.98;;;6.78;;
85983;SDS011;76557;45.488;12.254;2024-03-08T08:08:34;9.48;;;6.35;;
85983;SDS011;76557;45.488;12.254;2024-03-08T08:12:29;9.93;;;5.75;;
85983;SDS011;76557;45.488;12.254;2024-03-08T08:16:25;10.68;;;6.70;;
85983;SDS011;76557;45.488;12.254;2024-03-08T08:20:20;10.43;;;3.90;;
85983;SDS011;76557;45.488;12.254;2024-03-08T08:24:17;11.40;;;6.25;;
85983;SDS011;76557;45.488;12.254;2024-03-08T08:28:12;11.10;;;6.13;;
85983;SDS011;76557;45.488;12.254;2024-03-08T08:32:07;11.57;;;6.68;;
85983;SDS011;76557;45.488;12.254;2024-03-08T08:36:03;12.65;;;7.00;;
85983;SDS011;76557;45.488;12.254;2024-03-08T08:39:59;11.45;;;7.03;;
85983;SDS011;76557;45.488;12.254;2024-03-08T08:44:00;11.50;;;6.30;;
85983;SDS011;76557;45.488;12.254;2024-03-08T08:47:55;11.75;;;6.90;;
85983;SDS011;76557;45.488;12.254;2024-03-08T08:51:51;11.88;;;6.85;;
85983;SDS011;76557;45.488;12.254;2024-03-08T08:55:47;13.73;;;7.88;;
85983;SDS011;76557;45.488;12.254;2024-03-08T08:59:43;12.02;;;7.50;;
85983;SDS011;76557;45.488;12.254;2024-03-08T09:03:38;14.82;;;7.93;;
85983;SDS011;76557;45.488;12.254;2024-03-08T09:07:37;13.55;;;9.00;;
85983;SDS011;76557;45.488;12.254;2024-03-08T09:11:32;17.80;;;8.52;;
85983;SDS011;76557;45.488;12.254;2024-03-08T09:15:28;14.68;;;9.25;;
85983;SDS011;76557;45.488;12.254;2024-03-08T09:19:23;14.25;;;9.38;;
85983;SDS011;76557;45.488;12.254;2024-03-08T09:23:20;16.42;;;8.23;;
85983;SDS011;76557;45.488;12.254;2024-03-08T09:27:16;15.15;;;8.50;;
85983;SDS011;76557;45.488;12.254;2024-03-08T09:31:13;21.13;;;10.93;;
85983;SDS011;76557;45.488;12.254;2024-03-08T09:35:08;18.02;;;9.32;;
85983;SDS011;76557;45.488;12.254;2024-03-08T09:39:04;18.58;;;9.77;;
85983;SDS011;76557;45.488;12.254;2024-03-08T09:43:02;19.00;;;9.80;;
85983;SDS011;76557;45.488;12.254;2024-03-08T09:46:58;18.27;;;9.48;;
85983;SDS011;76557;45.488;12.254;2024-03-08T09:50:54;18.52;;;7.65;;
85983;SDS011;76557;45.488;12.254;2024-03-08T09:54:51;19.67;;;9.80;;
85983;SDS011;76557;45.488;12.254;2024-03-08T09:58:46;17.00;;;10.45;;
85983;SDS011;76557;45.488;12.254;2024-03-08T10:03:01;18.75;;;10.27;;
85983;SDS011;76557;45.488;12.254;2024-03-08T10:07:00;16.08;;;8.65;;
85983;SDS011;76557;45.488;12.254;2024-03-08T10:10:56;15.60;;;8.40;;
85983;SDS011;76557;45.488;12.254;2024-03-08T10:14:55;19.88;;;9.70;;
85983;SDS011;76557;45.488;12.254;2024-03-08T10:18:51;16.33;;;9.27;;
85983;SDS011;76557;45.488;12.254;2024-03-08T10:22:48;13.50;;;8.02;;
85983;SDS011;76557;45.488;12.254;2024-03-08T10:26:44;15.63;;;9.10;;
85983;SDS011;76557;45.488;12.254;2024-03-08T10:30:40;14.23;;;7.97;;
85983;SDS011;76557;45.488;12.254;2024-03-08T10:34:42;17.40;;;8.70;;
85983;SDS011;76557;45.488;12.254;2024-03-08T10:38:40;14.77;;;9.07;;
85983;SDS011;76557;45.488;12.254;2024-03-08T10:42:40;13.88;;;5.90;;
85983;SDS011;76557;45.488;12.254;2024-03-08T10:50:45;13.40;;;8.15;;
85983;SDS011;76557;45.488;12.254;2024-03-08T10:54:44;13.15;;;7.82;;
85983;SDS011;76557;45.488;12.254;2024-03-08T10:58:40;14.57;;;8.80;;
85983;SDS011;76557;45.488;12.254;2024-03-08T11:10:46;13.93;;;8.30;;
85983;SDS011;76557;45.488;12.254;2024-03-08T11:14:49;14.38;;;7.72;;
85983;SDS011;76557;45.488;12.254;2024-03-08T11:18:45;13.65;;;8.23;;
85983;SDS011;76557;45.488;12.254;2024-03-08T11:22:49;14.63;;;8.63;;
85983;SDS011;76557;45.488;12.254;2024-03-08T11:26:48;13.38;;;7.72;;
85983;SDS011;76557;45.488;12.254;2024-03-08T11:31:28;12.40;;;7.03;;
85983;SDS011;76557;45.488;12.254;2024-03-08T11:34:59;15.13;;;8.45;;
85983;SDS011;76557;45.488;12.254;2024-03-08T11:38:55;13.18;;;7.63;;
85983;SDS011;76557;45.488;12.254;2024-03-08T11:42:52;12.68;;;7.95;;
85983;SDS011;76557;45.488;12.254;2024-03-08T11:46:49;14.27;;;8.13;;
85983;SDS011;76557;45.488;12.254;2024-03-08T11:50:45;15.32;;;10.63;;
85983;SDS011;76557;45.488;12.254;2024-03-08T11:55:01;11.60;;;7.82;;
85983;SDS011;76557;45.488;12.254;2024-03-08T11:58:56;13.80;;;8.95;;
85983;SDS011;76557;45.488;12.254;2024-03-08T12:03:01;14.38;;;8.65;;
85983;SDS011;76557;45.488;12.254;2024-03-08T12:07:01;13.35;;;7.97;;
85983;SDS011;76557;45.488;12.254;2024-03-08T12:11:03;14.77;;;8.63;;
85983;SDS011;76557;45.488;12.254;2024-03-08T12:14:59;14.93;;;8.45;;
85983;SDS011;76557;45.488;12.254;2024-03-08T12:18:54;14.50;;;8.20;;
85983;SDS011;76557;45.488;12.254;2024-03-08T12:22:51;17.38;;;9.10;;
85983;SDS011;76557;45.488;12.254;2024-03-08T12:26:48;13.85;;;8.10;;
85983;SDS011;76557;45.488;12.254;2024-03-08T12:30:50;13.77;;;7.90;;
85983;SDS011;76557;45.488;12.254;2024-03-08T12:34:52;12.98;;;7.95;;
85983;SDS011;76557;45.488;12.254;2024-03-08T12:38:49;13.48;;;7.85;;
85983;SDS011;76557;45.488;12.254;2024-03-08T12:42:45;12.25;;;7.25;;
85983;SDS011;76557;45.488;12.254;2024-03-08T12:46:43;13.52;;;8.43;;
85983;SDS011;76557;45.488;12.254;2024-03-08T12:50:40;15.25;;;9.27;;
85983;SDS011;76557;45.488;12.254;2024-03-08T12:54:35;13.55;;;8.18;;
85983;SDS011;76557;45.488;12.254;2024-03-08T12:58:31;12.57;;;7.40;;
85983;SDS011;76557;45.488;12.254;2024-03-08T13:02:26;13.57;;;9.38;;
85983;SDS011;76557;45.488;12.254;2024-03-08T13:06:22;14.45;;;8.43;;
85983;SDS011;76557;45.488;12.254;2024-03-08T13:10:19;14.82;;;8.57;;
85983;SDS011;76557;45.488;12.254;2024-03-08T13:14:15;13.45;;;8.00;;
85983;SDS011;76557;45.488;12.254;2024-03-08T13:22:06;14.98;;;8.27;;
85983;SDS011;76557;45.488;12.254;2024-03-08T13:26:02;12.95;;;8.15;;
85983;SDS011;76557;45.488;12.254;2024-03-08T13:29:59;14.95;;;7.97;;
85983;SDS011;76557;45.488;12.254;2024-03-08T13:33:54;15.30;;;9.10;;
85983;SDS011;76557;45.488;12.254;2024-03-08T13:37:53;14.68;;;8.52;;
85983;SDS011;76557;45.488;12.254;2024-03-08T13:41:48;13.70;;;8.73;;
85983;SDS011;76557;45.488;12.254;2024-03-08T13:45:44;15.43;;;8.85;;
85983;SDS011;76557;45.488;12.254;2024-03-08T13:49:41;13.57;;;8.52;;
85983;SDS011;76557;45.488;12.254;2024-03-08T13:53:36;16.50;;;8.90;;
85983;SDS011;76557;45.488;12.254;2024-03-08T13:57:32;14.60;;;8.50;;
85983;SDS011;76557;45.488;12.254;2024-03-08T14:01:27;13.77;;;7.82;;
85983;SDS011;76557;45.488;12.254;2024-03-08T14:05:23;14.95;;;8.65;;
85983;SDS011;76557;45.488;12.254;2024-03-08T14:09:18;13.52;;;8.98;;
85983;SDS011;76557;45.488;12.254;2024-03-08T14:13:14;18.88;;;9.45;;
85983;SDS011;76557;45.488;12.254;2024-03-08T14:17:11;17.48;;;10.48;;
85983;SDS011;76557;45.488;12.254;2024-03-08T14:21:11;14.90;;;9.15;;
85983;SDS011;76557;45.488;12.254;2024-03-08T14:25:07;19.05;;;9.80;;
85983;SDS011;76557;45.488;12.254;2024-03-08T14:29:11;15.80;;;9.27;;
85983;SDS011;76557;45.488;12.254;2024-03-08T14:33:07;15.60;;;9.77;;
85983;SDS011;76557;45.488;12.254;2024-03-08T14:37:06;17.75;;;9.45;;
85983;SDS011;76557;45.488;12.254;2024-03-08T14:41:06;18.08;;;10.70;;
85983;SDS011;76557;45.488;12.254;2024-03-08T14:45:02;13.63;;;8.52;;
85983;SDS011;76557;45.488;12.254;2024-03-08T14:48:58;15.15;;;8.15;;
85983;SDS011;76557;45.488;12.254;2024-03-08T14:52:54;14.88;;;8.63;;
85983;SDS011;76557;45.488;12.254;2024-03-08T14:56:49;15.60;;;9.32;;
85983;SDS011;76557;45.488;12.254;2024-03-08T15:00:50;16.05;;;8.85;;
85983;SDS011;76557;45.488;12.254;2024-03-08T15:04:50;14.40;;;8.60;;
85983;SDS011;76557;45.488;12.254;2024-03-08T15:08:51;19.42;;;9.32;;
85983;SDS011;76557;45.488;12.254;2024-03-08T15:12:47;14.98;;;8.15;;
85983;SDS011;76557;45.488;12.254;2024-03-08T15:16:42;15.85;;;8.55;;
85983;SDS011;76557;45.488;12.254;2024-03-08T15:20:38;14.43;;;7.90;;
85983;SDS011;76557;45.488;12.254;2024-03-08T15:24:34;14.02;;;8.70;;
85983;SDS011;76557;45.488;12.254;2024-03-08T15:28:29;15.52;;;8.60;;
85983;SDS011;76557;45.488;12.254;2024-03-08T15:32:32;15.27;;;8.35;;
85983;SDS011;76557;45.488;12.254;2024-03-08T15:36:27;15.50;;;8.30;;
85983;SDS011;76557;45.488;12.254;2024-03-08T15:40:28;16.70;;;8.80;;
85983;SDS011;76557;45.488;12.254;2024-03-08T15:44:25;13.43;;;7.85;;
85983;SDS011;76557;45.488;12.254;2024-03-08T15:48:22;14.60;;;8.65;;
85983;SDS011;76557;45.488;12.254;2024-03-08T15:52:17;15.07;;;8.88;;
85983;SDS011;76557;45.488;12.254;2024-03-08T15:56:13;12.55;;;6.93;;
85983;SDS011;76557;45.488;12.254;2024-03-08T16:00:08;13.25;;;7.70;;
85983;SDS011;76557;45.488;12.254;2024-03-08T16:04:13;14.45;;;8.10;;
85983;SDS011;76557;45.488;12.254;2024-03-08T16:08:09;14.65;;;7.43;;
85983;SDS011;76557;45.488;12.254;2024-03-08T16:12:15;13.80;;;8.55;;
85983;SDS011;76557;45.488;12.254;2024-03-08T16:16:11;13.85;;;8.00;;
85983;SDS011;76557;45.488;12.254;2024-03-08T16:20:07;14.90;;;8.73;;
85983;SDS011;76557;45.488;12.254;2024-03-08T16:24:07;18.20;;;7.90;;
85983;SDS011;76557;45.488;12.254;2024-03-08T16:28:04;14.02;;;7.28;;
85983;SDS011;76557;45.488;12.254;2024-03-08T16:32:03;13.80;;;7.63;;
85983;SDS011;76557;45.488;12.254;2024-03-08T16:35:58;13.82;;;7.53;;
85983;SDS011;76557;45.488;12.254;2024-03-08T16:39:55;12.75;;;7.15;;
85983;SDS011;76557;45.488;12.254;2024-03-08T16:43:50;14.00;;;8.35;;
85983;SDS011;76557;45.488;12.254;2024-03-08T16:47:46;13.55;;;5.75;;
85983;SDS011;76557;45.488;12.254;2024-03-08T16:51:42;13.30;;;8.13;;
85983;SDS011;76557;45.488;12.254;2024-03-08T16:55:37;12.70;;;7.03;;
85983;SDS011;76557;45.488;12.254;2024-03-08T16:59:33;13.27;;;8.23;;
85983;SDS011;76557;45.488;12.254;2024-03-08T17:03:28;13.95;;;7.68;;
85983;SDS011;76557;45.488;12.254;2024-03-08T17:07:23;13.20;;;7.50;;
85983;SDS011;76557;45.488;12.254;2024-03-08T17:11:19;14.77;;;7.70;;
85983;SDS011;76557;45.488;12.254;2024-03-08T17:15:17;11.63;;;7.18;;
85983;SDS011;76557;45.488;12.254;2024-03-08T17:19:12;15.73;;;8.43;;
85983;SDS011;76557;45.488;12.254;2024-03-08T17:23:08;14.90;;;8.48;;
85983;SDS011;76557;45.488;12.254;2024-03-08T17:27:08;14.80;;;8.20;;
85983;SDS011;76557;45.488;12.254;2024-03-08T17:31:07;14.68;;;9.15;;
85983;SDS011;76557;45.488;12.254;2024-03-08T17:39:06;15.02;;;8.77;;
85983;SDS011;76557;45.488;12.254;2024-03-08T17:43:12;13.80;;;8.35;;
85983;SDS011;76557;45.488;12.254;2024-03-08T17:47:08;13.93;;;8.10;;
85983;SDS011;76557;45.488;12.254;2024-03-08T17:51:03;14.75;;;8.93;;
85983;SDS011;76557;45.488;12.254;2024-03-08T17:54:59;14.00;;;8.35;;
85983;SDS011;76557;45.488;12.254;2024-03-08T17:58:54;12.27;;;7.82;;
85983;SDS011;76557;45.488;12.254;2024-03-08T18:02:51;13.40;;;8.05;;
85983;SDS011;76557;45.488;12.254;2024-03-08T18:10:42;14.50;;;7.82;;
85983;SDS011;76557;45.488;12.254;2024-03-08T18:14:38;12.75;;;6.07;;
85983;SDS011;76557;45.488;12.254;2024-03-08T18:18:33;13.13;;;8.35;;
85983;SDS011;76557;45.488;12.254;2024-03-08T18:22:29;16.52;;;8.40;;
85983;SDS011;76557;45.488;12.254;2024-03-08T18:26:24;12.27;;;7.35;;
85983;SDS011;76557;45.488;12.254;2024-03-08T18:30:21;14.55;;;7.47;;
85983;SDS011;76557;45.488;12.254;2024-03-08T18:34:17;14.85;;;7.03;;
85983;SDS011;76557;45.488;12.254;2024-03-08T18:38:12;15.95;;;7.57;;
85983;SDS011;76557;45.488;12.254;2024-03-08T18:42:08;14.70;;;7.80;;
85983;SDS011;76557;45.488;12.254;2024-03-08T18:46:03;12.55;;;8.05;;
85983;SDS011;76557;45.488;12.254;2024-03-08T18:49:59;12.88;;;7.97;;
85983;SDS011;76557;45.488;12.254;2024-03-08T18:53:55;11.80;;;7.30;;
85983;SDS011;76557;45.488;12.254;2024-03-08T18:57:50;10.27;;;7.10;;
85983;SDS011;76557;45.488;12.254;2024-03-08T19:01:47;12.52;;;7.03;;
85983;SDS011;76557;45.488;12.254;2024-03-08T19:05:43;13.60;;;7.97;;
85983;SDS011;76557;45.488;12.254;2024-03-08T19:09:41;13.95;;;7.70;;
85983;SDS011;76557;45.488;12.254;2024-03-08T19:13:38;12.02;;;7.55;;
85983;SDS011;76557;45.488;12.254;2024-03-08T19:17:36;11.13;;;7.30;;
85983;SDS011;76557;45.488;12.254;2024-03-08T19:21:31;12.82;;;7.15;;
85983;SDS011;76557;45.488;12.254;2024-03-08T19:25:28;13.88;;;8.30;;
85983;SDS011;76557;45.488;12.254;2024-03-08T19:29:28;13.07;;;7.40;;
85983;SDS011;76557;45.488;12.254;2024-03-08T19:33:24;11.98;;;7.40;;
85983;SDS011;76557;45.488;12.254;2024-03-08T19:37:19;13.00;;;6.78;;
85983;SDS011;76557;45.488;12.254;2024-03-08T19:41:15;13.25;;;7.68;;
85983;SDS011;76557;45.488;12.254;2024-03-08T19:45:11;14.35;;;7.28;;
85983;SDS011;76557;45.488;12.254;2024-03-08T19:53:11;12.15;;;7.28;;
85983;SDS011;76557;45.488;12.254;2024-03-08T19:57:08;14.32;;;7.57;;
85983;SDS011;76557;45.488;12.254;2024-03-08T20:01:04;11.95;;;7.10;;
85983;SDS011;76557;45.488;12.254;2024-03-08T20:04:59;14.18;;;7.57;;
85983;SDS011;76557;45.488;12.254;2024-03-08T20:08:56;15.43;;;8.38;;
85983;SDS011;76557;45.488;12.254;2024-03-08T20:12:54;14.27;;;8.02;;
85983;SDS011;76557;45.488;12.254;2024-03-08T20:16:53;16.35;;;10.18;;
85983;SDS011;76557;45.488;12.254;2024-03-08T20:20:48;15.50;;;8.45;;
85983;SDS011;76557;45.488;12.254;2024-03-08T20:24:44;18.05;;;8.88;;
85983;SDS011;76557;45.488;12.254;2024-03-08T20:28:39;14.32;;;8.82;;
85983;SDS011;76557;45.488;12.254;2024-03-08T20:32:36;15.90;;;8.98;;
85983;SDS011;76557;45.488;12.254;2024-03-08T20:36:32;15.57;;;9.00;;
85983;SDS011;76557;45.488;12.254;2024-03-08T20:40:28;15.07;;;8.75;;
85983;SDS011;76557;45.488;12.254;2024-03-08T20:44:32;16.67;;;9.57;;
85983;SDS011;76557;45.488;12.254;2024-03-08T20:48:27;15.18;;;8.68;;
85983;SDS011;76557;45.488;12.254;2024-03-08T20:52:23;15.23;;;8.48;;
85983;SDS011;76557;45.488;12.254;2024-03-08T20:56:18;14.32;;;8.85;;
85983;SDS011;76557;45.488;12.254;2024-03-08T21:00:17;15.82;;;8.93;;
85983;SDS011;76557;45.488;12.254;2024-03-08T21:08:24;12.57;;;8.13;;
85983;SDS011;76557;45.488;12.254;2024-03-08T21:12:23;13.68;;;8.23;;
85983;SDS011;76557;45.488;12.254;2024-03-08T21:16:18;12.95;;;7.60;;
85983;SDS011;76557;45.488;12.254;2024-03-08T21:20:13;12.98;;;7.15;;
85983;SDS011;76557;45.488;12.254;2024-03-08T21:24:12;13.98;;;7.70;;
85983;SDS011;76557;45.488;12.254;2024-03-08T21:28:08;13.95;;;8.15;;
85983;SDS011;76557;45.488;12.254;2024-03-08T21:32:03;12.63;;;8.05;;
85983;SDS011;76557;45.488;12.254;2024-03-08T21:36:01;11.48;;;7.32;;
85983;SDS011;76557;45.488;12.254;2024-03-08T21:39:58;12.85;;;8.02;;
85983;SDS011;76557;45.488;12.254;2024-03-08T21:43:55;12.98;;;9.32;;
85983;SDS011;76557;45.488;12.254;2024-03-08T21:47:50;12.50;;;7.82;;
85983;SDS011;76557;45.488;12.254;2024-03-08T21:51:47;12.45;;;7.55;;
85983;SDS011;76557;45.488;12.254;2024-03-08T21:55:42;14.82;;;8.63;;
85983;SDS011;76557;45.488;12.254;2024-03-08T21:59:39;13.48;;;8.20;;
85983;SDS011;76557;45.488;12.254;2024-03-08T22:03:37;12.65;;;7.70;;
85983;SDS011;76557;45.488;12.254;2024-03-08T22:07:33;11.32;;;8.00;;
85983;SDS011;76557;45.488;12.254;2024-03-08T22:11:32;12.52;;;8.02;;
85983;SDS011;76557;45.488;12.254;2024-03-08T22:15:28;13.32;;;8.10;;
85983;SDS011;76557;45.488;12.254;2024-03-08T22:19:23;13.85;;;9.38;;
85983;SDS011;76557;45.488;12.254;2024-03-08T22:23:20;14.02;;;8.18;;
85983;SDS011;76557;45.488;12.254;2024-03-08T22:27:17;14.60;;;8.50;;
85983;SDS011;76557;45.488;12.254;2024-03-08T22:31:13;13.93;;;8.40;;
85983;SDS011;76557;45.488;12.254;2024-03-08T22:35:08;14.23;;;7.85;;
85983;SDS011;76557;45.488;12.254;2024-03-08T22:43:05;14.38;;;8.45;;
85983;SDS011;76557;45.488;12.254;2024-03-08T22:47:01;14.40;;;8.70;;
85983;SDS011;76557;45.488;12.254;2024-03-08T22:50:58;15.85;;;9.48;;
85983;SDS011;76557;45.488;12.254;2024-03-08T22:54:53;16.00;;;9.35;;
85983;SDS011;76557;45.488;12.254;2024-03-08T22:58:49;14.30;;;9.07;;
85983;SDS011;76557;45.488;12.254;2024-03-08T23:02:44;16.95;;;8.75;;
85983;SDS011;76557;45.488;12.254;2024-03-08T23:06:41;16.88;;;9.85;;
85983;SDS011;76557;45.488;12.254;2024-03-08T23:10:38;17.90;;;11.98;;
85983;SDS011;76557;45.488;12.254;2024-03-08T23:14:35;15.45;;;9.55;;
85983;SDS011;76557;45.488;12.254;2024-03-08T23:18:33;14.25;;;8.60;;
85983;SDS011;76557;45.488;12.254;2024-03-08T23:22:28;17.40;;;9.43;;
85983;SDS011;76557;45.488;12.254;2024-03-08T23:26:24;16.98;;;9.38;;
85983;SDS011;76557;45.488;12.254;2024-03-08T23:30:22;14.68;;;8.68;;
85983;SDS011;76557;45.488;12.254;2024-03-08T23:34:19;16.15;;;9.50;;
85983;SDS011;76557;45.488;12.254;2024-03-08T23:38:14;17.38;;;8.80;;
85983;SDS011;76557;45.488;12.254;2024-03-08T23:42:10;17.10;;;9.38;;
85983;SDS011;76557;45.488;12.254;2024-03-08T23:46:06;16.20;;;9.23;;